»·PEaware :: JBU182 KSNA-KSEZ

JBU182 :: KSNA-KSEZ

FLIGHT INFORMATION

Flight Status: Arrived
Operator:
JetBlue Airways
More flights by this operator :: More flights under this callsign
Pilot: Ben L. (6391)
Aircraft: AIRBUS A320
(A320)
More flights by this aircraft type
Origin: KSNA John Wayne-Orange Co
United States
Destination: KSEZ Sedona
United States
More flights between these airports :: More routes between these airports
Route: PIGGN2 AVRRY LANCY DRK
File this flight plan on PilotEdge
Remarks:
Altitude:
(Current/Filed)
31,000ft
Speed:
(Current/Filed)
450kts
Departed: 23-Mar-20 12:55 PM
Arrived: 23-Mar-20 01:46 PM
Distance/Time
Traveled:
310nm/0:50
Distance/Time
To Go:
Arrived

Flight Plot

Page will automatically refresh every two minutes.

Flight plan parsing failed; only flown route is shown


Map Options




Map Legend


Flown Route
Filed Route
Departure Airport
Arrival Airport
Navaid (VOR, NDB)
Fix

Horizontal Profiles

Position Reports

Time Latitude Longitude Heading Altitude Ground
Speed
23-Mar-20 12:19 33.679324 -117.862328 116 65ft 0kts
23-Mar-20 12:20 33.679325 -117.862328 116 65ft 0kts
23-Mar-20 12:21 33.679324 -117.862328 116 65ft 0kts
23-Mar-20 12:22 33.679324 -117.862328 116 65ft 0kts
23-Mar-20 12:23 33.679324 -117.862328 116 65ft 0kts
23-Mar-20 12:24 33.679324 -117.862328 116 65ft 0kts
23-Mar-20 12:25 33.679324 -117.862328 116 65ft 0kts
23-Mar-20 12:26 33.679324 -117.862328 116 65ft 0kts
23-Mar-20 12:27 33.679324 -117.862328 116 65ft 0kts
23-Mar-20 12:28 33.679324 -117.862328 116 65ft 0kts
23-Mar-20 12:29 33.679324 -117.862328 116 65ft 0kts
23-Mar-20 12:30 33.679324 -117.862328 116 65ft 0kts
23-Mar-20 12:30 33.679324 -117.862328 116 65ft 0kts
23-Mar-20 12:32 33.679324 -117.862328 116 65ft 0kts
23-Mar-20 12:33 33.679324 -117.862328 116 65ft 0kts
23-Mar-20 12:33 33.679324 -117.862328 116 65ft 0kts
23-Mar-20 12:34 33.679324 -117.862328 116 65ft 0kts
23-Mar-20 12:36 33.679324 -117.862328 116 65ft 0kts
23-Mar-20 12:36 33.679324 -117.862328 116 65ft 0kts
23-Mar-20 12:37 33.679324 -117.862328 116 65ft 0kts
23-Mar-20 12:38 33.679324 -117.862328 116 65ft 0kts
23-Mar-20 12:39 33.679324 -117.862328 116 65ft 0kts
23-Mar-20 12:40 33.679324 -117.862328 116 65ft 0kts
23-Mar-20 12:41 33.679324 -117.862328 116 65ft 0kts
23-Mar-20 12:42 33.679324 -117.862328 116 65ft 0kts
23-Mar-20 12:43 33.679324 -117.862328 116 65ft 0kts
23-Mar-20 12:44 33.679324 -117.862328 116 65ft 0kts
23-Mar-20 12:45 33.679324 -117.862328 116 65ft 0kts
23-Mar-20 12:46 33.679324 -117.862328 116 65ft 0kts
23-Mar-20 12:47 33.679324 -117.862328 116 65ft 0kts
23-Mar-20 12:48 33.679383 -117.862468 116 65ft 1kts
23-Mar-20 12:49 33.679299 -117.863133 44 65ft 2kts
23-Mar-20 12:50 33.679136 -117.863266 26 65ft 0kts
23-Mar-20 12:51 33.679249 -117.863199 26 65ft 4kts
23-Mar-20 12:52 33.680579 -117.862955 310 65ft 0kts
23-Mar-20 12:53 33.681125 -117.864202 300 65ft 13kts
23-Mar-20 12:54 33.672344 -117.870896 207 95ft 145kts
23-Mar-20 12:55 33.633510 -117.890905 189 2949ft 185kts
23-Mar-20 12:56 33.571024 -117.897518 170 4950ft 262kts
23-Mar-20 12:57 33.505525 -117.852603 128 6940ft 287kts
23-Mar-20 12:58 33.475833 -117.759073 86 9993ft 322kts
23-Mar-20 12:59 33.503258 -117.650360 56 12182ft 376kts
23-Mar-20 13:00 33.556175 -117.540377 56 13034ft 383kts
23-Mar-20 13:01 33.581879 -117.414966 91 15051ft 413kts
23-Mar-20 13:02 33.578103 -117.273317 92 17342ft 436kts
23-Mar-20 13:03 33.601186 -117.127663 73 19370ft 455kts
23-Mar-20 13:04 33.628357 -116.975640 92 21119ft 477kts
23-Mar-20 13:05 33.624262 -116.813373 95 22850ft 494kts
23-Mar-20 13:06 33.619779 -116.645466 95 24447ft 511kts
23-Mar-20 13:07 33.614919 -116.472156 95 25932ft 527kts
23-Mar-20 13:08 33.609822 -116.295005 96 27289ft 541kts
23-Mar-20 13:09 33.605158 -116.111832 96 28508ft 553kts
23-Mar-20 13:10 33.638657 -115.929483 68 29586ft 574kts
23-Mar-20 13:11 33.696145 -115.748852 69 30934ft 578kts
23-Mar-20 13:12 33.753209 -115.567758 67 31164ft 577kts
23-Mar-20 13:13 33.816406 -115.389858 65 31163ft 575kts
23-Mar-20 13:14 33.875396 -115.223154 66 31146ft 567kts
23-Mar-20 13:15 33.934771 -115.054645 67 31145ft 536kts
23-Mar-20 13:16 33.991360 -114.893023 67 31151ft 517kts
23-Mar-20 13:17 34.047175 -114.732720 67 31152ft 519kts
23-Mar-20 13:18 34.100054 -114.580222 67 31120ft 519kts
23-Mar-20 13:19 34.154596 -114.422159 67 31081ft 519kts
23-Mar-20 13:20 34.206890 -114.269863 68 31079ft 517kts
23-Mar-20 13:21 34.261492 -114.110037 68 31066ft 516kts
23-Mar-20 13:22 34.308213 -113.945496 73 31085ft 517kts
23-Mar-20 13:23 34.353721 -113.780404 73 31109ft 519kts
23-Mar-20 13:24 34.399146 -113.614578 73 30971ft 520kts
23-Mar-20 13:25 34.444184 -113.449237 73 29187ft 514kts
23-Mar-20 13:26 34.485654 -113.296105 73 27595ft 500kts
23-Mar-20 13:27 34.526928 -113.142825 73 26017ft 483kts
23-Mar-20 13:28 34.567714 -112.990444 73 24368ft 467kts
23-Mar-20 13:29 34.607052 -112.842676 74 22734ft 452kts
23-Mar-20 13:30 34.644758 -112.700299 74 21274ft 432kts
23-Mar-20 13:31 34.680477 -112.564711 74 19923ft 412kts
23-Mar-20 13:32 34.714586 -112.434792 74 18558ft 395kts
23-Mar-20 13:33 34.746355 -112.313960 74 17228ft 381kts
23-Mar-20 13:34 34.778135 -112.192646 74 15871ft 368kts
23-Mar-20 13:35 34.808108 -112.077196 74 14254ft 341kts
23-Mar-20 13:36 34.835240 -111.971271 74 12160ft 317kts
23-Mar-20 13:37 34.860915 -111.872202 74 10073ft 298kts
23-Mar-20 13:38 34.887914 -111.781376 52 9076ft 272kts
23-Mar-20 13:39 34.948300 -111.730888 30 8494ft 258kts
23-Mar-20 13:40 34.991272 -111.674090 105 8086ft 217kts
23-Mar-20 13:41 34.951831 -111.663671 220 8050ft 182kts
23-Mar-20 13:42 34.922479 -111.697960 219 7472ft 131kts
23-Mar-20 13:43 34.895713 -111.728377 225 6171ft 136kts
23-Mar-20 13:44 34.869113 -111.762348 224 5400ft 139kts
23-Mar-20 13:45 34.846774 -111.790652 223 4784ft 26kts
23-Mar-20 13:46 34.846702 -111.791988 7 4777ft 5kts
23-Mar-20 13:47 34.847249 -111.791317 49 4783ft 0kts
23-Mar-20 13:48 34.848532 -111.790218 14 4794ft 9kts
23-Mar-20 13:49 34.849680 -111.789109 143 4804ft 1kts
23-Mar-20 13:50 34.850084 -111.789451 143 4804ft 0kts
23-Mar-20 13:51 34.850084 -111.789451 143 4804ft 0kts
23-Mar-20 13:52 34.850051 -111.789417 140 4804ft 0kts
23-Mar-20 13:53 34.850051 -111.789417 140 4804ft 0kts
23-Mar-20 13:54 34.850051 -111.789417 140 4804ft 0kts
23-Mar-20 13:55 34.850051 -111.789417 140 4804ft 0kts
23-Mar-20 13:56 34.850051 -111.789417 140 4804ft 0kts
23-Mar-20 13:57 34.850051 -111.789417 140 4804ft 0kts
23-Mar-20 13:58 34.850051 -111.789417 140 4804ft 0kts
23-Mar-20 13:59 34.850051 -111.789417 140 4804ft 0kts

Navigation Log

Ident Type
Flight plan parsing failed, navigation log unavailable